createdAt,value
2019-03-21T00:05:18.308Z,11.65
2019-03-21T00:15:25.275Z,9.78
2019-03-21T00:25:28.217Z,11.25
2019-03-21T00:35:30.776Z,10.30
2019-03-21T00:45:33.290Z,11.27
2019-03-21T00:55:36.390Z,10.07
2019-03-21T01:15:40.966Z,11.43
2019-03-21T01:25:46.246Z,10.90
2019-03-21T01:35:48.777Z,11.22
2019-03-21T01:45:51.312Z,10.57
2019-03-21T01:55:54.082Z,10.20
2019-03-21T02:05:57.706Z,11.07
2019-03-21T02:16:00.559Z,9.70
2019-03-21T02:26:03.795Z,9.73
2019-03-21T02:36:06.384Z,11.20
2019-03-21T02:46:09.272Z,11.33
2019-03-21T02:56:14.281Z,12.00
2019-03-21T03:06:16.907Z,11.83
2019-03-21T03:16:19.678Z,12.27
2019-03-21T03:26:22.713Z,12.25
2019-03-21T03:36:25.393Z,12.10
2019-03-21T03:46:29.566Z,12.13
2019-03-21T03:56:32.428Z,12.10
2019-03-21T04:06:35.473Z,11.95
2019-03-21T04:16:38.478Z,11.60
2019-03-21T04:26:41.318Z,12.10
2019-03-21T04:36:43.911Z,11.73
2019-03-21T04:46:46.501Z,12.67
2019-03-21T04:56:49.464Z,12.70
2019-03-21T05:06:52.514Z,13.30
2019-03-21T05:16:55.557Z,12.98
2019-03-21T05:26:58.295Z,15.10
2019-03-21T05:37:00.851Z,15.87
2019-03-21T05:47:03.354Z,17.73
2019-03-21T05:57:06.559Z,15.93
2019-03-21T06:17:31.424Z,15.50
2019-03-21T06:27:35.097Z,13.15
2019-03-21T06:37:38.566Z,14.18
2019-03-21T06:47:41.087Z,13.25
2019-03-21T06:57:43.982Z,13.50
2019-03-21T07:07:47.114Z,13.43
2019-03-21T07:27:52.318Z,13.22
2019-03-21T07:37:54.866Z,13.45
2019-03-21T07:47:58.013Z,13.80
2019-03-21T08:08:02.903Z,13.48
2019-03-21T08:18:05.418Z,16.60
2019-03-21T08:28:08.118Z,13.93
2019-03-21T08:38:11.399Z,14.47
2019-03-21T08:48:14.678Z,16.45
2019-03-21T08:58:18.048Z,17.00
2019-03-21T09:08:20.932Z,17.20
2019-03-21T09:18:23.502Z,18.23
2019-03-21T09:28:27.438Z,17.47
2019-03-21T09:38:31.412Z,16.55
2019-03-21T09:48:34.270Z,15.98
2019-03-21T09:58:37.059Z,17.35
2019-03-21T10:08:39.726Z,17.45
2019-03-21T10:18:42.511Z,16.77
2019-03-21T10:28:45.042Z,16.23
2019-03-21T10:38:48.758Z,18.53
2019-03-21T10:49:10.447Z,17.17
2019-03-21T10:59:13.316Z,15.95
2019-03-21T11:09:16.923Z,15.83
2019-03-21T11:19:19.371Z,27.50
2019-03-21T11:29:22.387Z,18.03
2019-03-21T11:49:27.763Z,14.38
2019-03-21T11:59:46.218Z,10.43
2019-03-21T12:09:35.215Z,13.75
2019-03-21T12:19:40.927Z,12.55
2019-03-21T12:29:43.688Z,9.83
2019-03-21T12:49:47.890Z,8.50
2019-03-21T12:59:50.790Z,8.48
2019-03-21T13:09:53.850Z,8.28
2019-03-21T13:19:56.340Z,8.28
2019-03-21T13:29:59.115Z,6.85
2019-03-21T13:40:01.935Z,7.58
2019-03-21T13:50:06.184Z,6.55
2019-03-21T14:00:11.295Z,7.30
2019-03-21T14:10:14.320Z,8.25
2019-03-21T14:20:16.828Z,7.95
2019-03-21T14:30:19.670Z,8.65
2019-03-21T14:40:22.226Z,7.83
2019-03-21T14:50:24.986Z,7.40
2019-03-21T15:00:27.766Z,7.37
2019-03-21T15:10:30.276Z,7.40
2019-03-21T15:20:32.815Z,9.50
2019-03-21T15:30:35.327Z,9.83
2019-03-21T15:40:37.963Z,10.88
2019-03-21T15:50:41.019Z,11.33
2019-03-21T16:00:43.967Z,10.82
2019-03-21T16:10:46.462Z,9.73
2019-03-21T16:30:51.033Z,10.30
2019-03-21T16:50:55.427Z,11.35
2019-03-21T17:00:58.260Z,13.13
2019-03-21T17:21:03.117Z,13.50
2019-03-21T17:31:06.519Z,13.20
2019-03-21T17:41:09.767Z,12.63
2019-03-21T17:51:26.871Z,13.38
2019-03-21T18:01:30.182Z,12.00
2019-03-21T18:11:33.041Z,16.60
2019-03-21T18:31:38.080Z,20.00
2019-03-21T18:41:41.841Z,19.98
2019-03-21T18:51:44.370Z,17.50
2019-03-21T19:01:58.038Z,23.23
2019-03-21T19:11:52.834Z,20.90
2019-03-21T19:21:55.422Z,21.40
2019-03-21T19:31:57.951Z,19.90
2019-03-21T19:42:01.447Z,23.27
2019-03-21T19:52:05.521Z,22.07
2019-03-21T20:02:08.337Z,23.50
2019-03-21T20:12:11.109Z,24.32
2019-03-21T20:22:13.691Z,23.10
2019-03-21T20:32:20.740Z,22.53
2019-03-21T20:42:22.642Z,23.60
2019-03-21T20:52:25.743Z,24.37
2019-03-21T21:12:30.430Z,25.97
2019-03-21T21:22:32.982Z,28.83
2019-03-21T21:32:36.301Z,29.33
2019-03-21T21:42:39.112Z,27.65
2019-03-21T21:52:42.581Z,30.37
2019-03-21T22:02:45.227Z,27.30
2019-03-21T22:12:47.879Z,28.17
2019-03-21T22:22:50.602Z,29.70
2019-03-21T22:32:53.304Z,29.37
2019-03-21T22:42:56.767Z,27.48
2019-03-21T22:52:59.299Z,28.25
2019-03-21T23:03:03.032Z,31.43
2019-03-21T23:13:05.626Z,32.88
2019-03-21T23:23:08.335Z,33.07
2019-03-21T23:33:11.137Z,32.63
2019-03-21T23:43:13.922Z,30.02
2019-03-21T23:53:16.415Z,34.18
